sensor_id;sensor_type;location;lat;lon;timestamp;temperature;humidity
728;DHT22;347;48.780;9.158;2023-04-03T00:02:07;8.70;22.40
728;DHT22;347;48.780;9.158;2023-04-03T00:04:33;8.80;22.30
728;DHT22;347;48.780;9.158;2023-04-03T00:06:58;8.80;22.40
728;DHT22;347;48.780;9.158;2023-04-03T00:09:24;8.80;22.10
728;DHT22;347;48.780;9.158;2023-04-03T00:11:50;8.70;22.10
728;DHT22;347;48.780;9.158;2023-04-03T00:14:16;8.70;22.20
728;DHT22;347;48.780;9.158;2023-04-03T00:16:41;8.70;22.20
728;DHT22;347;48.780;9.158;2023-04-03T00:19:07;8.70;22.30
728;DHT22;347;48.780;9.158;2023-04-03T00:21:33;8.70;22.20
728;DHT22;347;48.780;9.158;2023-04-03T00:23:58;8.70;22.20
728;DHT22;347;48.780;9.158;2023-04-03T00:26:24;8.70;21.90
728;DHT22;347;48.780;9.158;2023-04-03T00:28:50;8.50;23.00
728;DHT22;347;48.780;9.158;2023-04-03T00:31:16;8.50;22.90
728;DHT22;347;48.780;9.158;2023-04-03T00:33:42;8.50;22.70
728;DHT22;347;48.780;9.158;2023-04-03T00:36:09;8.60;23.00
728;DHT22;347;48.780;9.158;2023-04-03T00:38:36;8.60;22.70
728;DHT22;347;48.780;9.158;2023-04-03T00:41:02;8.40;23.20
728;DHT22;347;48.780;9.158;2023-04-03T00:43:28;8.20;23.40
728;DHT22;347;48.780;9.158;2023-04-03T00:45:55;8.20;23.70
728;DHT22;347;48.780;9.158;2023-04-03T00:50:50;8.40;22.90
728;DHT22;347;48.780;9.158;2023-04-03T00:53:22;8.50;23.00
728;DHT22;347;48.780;9.158;2023-04-03T00:55:50;8.60;22.60
728;DHT22;347;48.780;9.158;2023-04-03T00:58:18;8.60;22.50
728;DHT22;347;48.780;9.158;2023-04-03T01:00:50;8.60;22.30
728;DHT22;347;48.780;9.158;2023-04-03T01:03:21;8.70;22.40
728;DHT22;347;48.780;9.158;2023-04-03T01:05:47;8.70;22.00
728;DHT22;347;48.780;9.158;2023-04-03T01:08:12;8.60;22.70
728;DHT22;347;48.780;9.158;2023-04-03T01:10:38;8.60;22.60
728;DHT22;347;48.780;9.158;2023-04-03T01:13:19;8.40;22.90
728;DHT22;347;48.780;9.158;2023-04-03T01:15:45;8.40;22.60
728;DHT22;347;48.780;9.158;2023-04-03T01:18:11;8.50;23.00
728;DHT22;347;48.780;9.158;2023-04-03T01:25:56;8.60;22.60
728;DHT22;347;48.780;9.158;2023-04-03T01:28:32;8.60;22.90
728;DHT22;347;48.780;9.158;2023-04-03T01:33:48;8.60;22.40
728;DHT22;347;48.780;9.158;2023-04-03T01:36:26;8.60;22.50
728;DHT22;347;48.780;9.158;2023-04-03T01:38:54;8.60;22.40
728;DHT22;347;48.780;9.158;2023-04-03T01:41:20;8.50;22.50
728;DHT22;347;48.780;9.158;2023-04-03T01:43:47;8.50;22.30
728;DHT22;347;48.780;9.158;2023-04-03T01:46:13;8.40;22.90
728;DHT22;347;48.780;9.158;2023-04-03T01:48:39;8.20;22.90
728;DHT22;347;48.780;9.158;2023-04-03T01:51:05;8.30;23.00
728;DHT22;347;48.780;9.158;2023-04-03T01:53:30;8.40;22.90
728;DHT22;347;48.780;9.158;2023-04-03T01:55:56;8.50;23.00
728;DHT22;347;48.780;9.158;2023-04-03T01:58:22;8.60;23.00
728;DHT22;347;48.780;9.158;2023-04-03T02:00:47;8.60;22.60
728;DHT22;347;48.780;9.158;2023-04-03T02:03:13;8.60;22.40
728;DHT22;347;48.780;9.158;2023-04-03T02:05:40;8.60;22.60
728;DHT22;347;48.780;9.158;2023-04-03T02:08:06;8.60;23.00
728;DHT22;347;48.780;9.158;2023-04-03T02:10:31;8.60;22.40
728;DHT22;347;48.780;9.158;2023-04-03T02:12:57;8.60;22.70
728;DHT22;347;48.780;9.158;2023-04-03T02:15:23;8.60;22.80
728;DHT22;347;48.780;9.158;2023-04-03T02:17:48;8.70;22.60
728;DHT22;347;48.780;9.158;2023-04-03T02:20:14;8.70;22.30
728;DHT22;347;48.780;9.158;2023-04-03T02:22:40;8.70;22.00
728;DHT22;347;48.780;9.158;2023-04-03T02:25:06;8.70;22.30
728;DHT22;347;48.780;9.158;2023-04-03T02:27:31;8.70;22.20
728;DHT22;347;48.780;9.158;2023-04-03T02:29:57;8.60;21.50
728;DHT22;347;48.780;9.158;2023-04-03T02:32:23;8.50;21.50
728;DHT22;347;48.780;9.158;2023-04-03T02:34:48;8.50;21.50
728;DHT22;347;48.780;9.158;2023-04-03T02:37:14;8.60;21.30
728;DHT22;347;48.780;9.158;2023-04-03T02:39:40;8.60;20.80
728;DHT22;347;48.780;9.158;2023-04-03T02:42:06;8.60;20.70
728;DHT22;347;48.780;9.158;2023-04-03T02:44:32;8.50;20.60
728;DHT22;347;48.780;9.158;2023-04-03T02:46:58;8.40;20.80
728;DHT22;347;48.780;9.158;2023-04-03T02:49:23;8.50;20.70
728;DHT22;347;48.780;9.158;2023-04-03T02:51:49;8.40;20.90
728;DHT22;347;48.780;9.158;2023-04-03T02:54:16;8.10;21.60
728;DHT22;347;48.780;9.158;2023-04-03T02:56:41;8.00;21.70
728;DHT22;347;48.780;9.158;2023-04-03T02:59:07;7.80;22.10
728;DHT22;347;48.780;9.158;2023-04-03T03:01:33;7.80;22.60
728;DHT22;347;48.780;9.158;2023-04-03T03:03:59;7.90;22.20
728;DHT22;347;48.780;9.158;2023-04-03T03:06:25;7.80;22.60
728;DHT22;347;48.780;9.158;2023-04-03T03:08:51;7.70;22.50
728;DHT22;347;48.780;9.158;2023-04-03T03:11:17;7.60;22.40
728;DHT22;347;48.780;9.158;2023-04-03T03:13:43;7.70;22.50
728;DHT22;347;48.780;9.158;2023-04-03T03:16:09;7.80;22.60
728;DHT22;347;48.780;9.158;2023-04-03T03:18:35;8.00;22.00
728;DHT22;347;48.780;9.158;2023-04-03T03:21:02;8.10;21.60
728;DHT22;347;48.780;9.158;2023-04-03T03:23:29;8.10;21.20
728;DHT22;347;48.780;9.158;2023-04-03T03:25:57;8.10;21.80
728;DHT22;347;48.780;9.158;2023-04-03T03:28:22;8.10;21.70
728;DHT22;347;48.780;9.158;2023-04-03T03:30:48;8.10;22.30
728;DHT22;347;48.780;9.158;2023-04-03T03:33:14;8.10;21.80
728;DHT22;347;48.780;9.158;2023-04-03T03:35:39;8.30;21.30
728;DHT22;347;48.780;9.158;2023-04-03T03:38:05;8.40;20.30
728;DHT22;347;48.780;9.158;2023-04-03T03:40:31;8.30;20.90
728;DHT22;347;48.780;9.158;2023-04-03T03:42:56;8.30;21.00
728;DHT22;347;48.780;9.158;2023-04-03T03:45:22;8.40;21.20
728;DHT22;347;48.780;9.158;2023-04-03T03:47:48;8.40;20.90
728;DHT22;347;48.780;9.158;2023-04-03T03:50:13;8.30;20.70
728;DHT22;347;48.780;9.158;2023-04-03T03:52:39;8.40;20.80
728;DHT22;347;48.780;9.158;2023-04-03T03:55:05;8.60;20.40
728;DHT22;347;48.780;9.158;2023-04-03T03:57:31;8.70;20.10
728;DHT22;347;48.780;9.158;2023-04-03T03:59:56;8.90;19.90
728;DHT22;347;48.780;9.158;2023-04-03T04:02:22;9.00;20.60
728;DHT22;347;48.780;9.158;2023-04-03T04:04:48;9.00;19.50
728;DHT22;347;48.780;9.158;2023-04-03T04:07:14;9.00;19.50
728;DHT22;347;48.780;9.158;2023-04-03T04:09:40;9.10;19.40
728;DHT22;347;48.780;9.158;2023-04-03T04:12:06;9.00;19.40
728;DHT22;347;48.780;9.158;2023-04-03T04:14:31;9.10;19.20
728;DHT22;347;48.780;9.158;2023-04-03T04:16:57;9.00;19.20
728;DHT22;347;48.780;9.158;2023-04-03T04:19:22;8.90;19.30
728;DHT22;347;48.780;9.158;2023-04-03T04:21:48;9.00;19.30
728;DHT22;347;48.780;9.158;2023-04-03T04:24:14;9.00;19.00
728;DHT22;347;48.780;9.158;2023-04-03T04:26:40;8.80;19.20
728;DHT22;347;48.780;9.158;2023-04-03T04:29:05;8.70;19.30
728;DHT22;347;48.780;9.158;2023-04-03T04:31:31;8.60;19.80
728;DHT22;347;48.780;9.158;2023-04-03T04:33:57;8.70;19.40
728;DHT22;347;48.780;9.158;2023-04-03T04:36:22;8.50;19.50
728;DHT22;347;48.780;9.158;2023-04-03T04:38:48;8.30;19.60
728;DHT22;347;48.780;9.158;2023-04-03T04:41:13;8.40;19.70
728;DHT22;347;48.780;9.158;2023-04-03T04:43:40;8.40;19.20
728;DHT22;347;48.780;9.158;2023-04-03T04:46:07;8.30;19.50
728;DHT22;347;48.780;9.158;2023-04-03T04:48:34;8.20;19.30
728;DHT22;347;48.780;9.158;2023-04-03T04:51:00;8.40;19.10
728;DHT22;347;48.780;9.158;2023-04-03T04:53:25;8.50;19.00
728;DHT22;347;48.780;9.158;2023-04-03T04:55:52;8.50;19.10
728;DHT22;347;48.780;9.158;2023-04-03T04:58:17;8.50;18.70
728;DHT22;347;48.780;9.158;2023-04-03T05:00:43;8.40;18.30
728;DHT22;347;48.780;9.158;2023-04-03T05:03:09;8.40;18.80
728;DHT22;347;48.780;9.158;2023-04-03T05:05:35;8.50;18.90
728;DHT22;347;48.780;9.158;2023-04-03T05:08:01;8.50;18.00
728;DHT22;347;48.780;9.158;2023-04-03T05:10:27;8.40;19.00
728;DHT22;347;48.780;9.158;2023-04-03T05:12:53;8.50;18.40
728;DHT22;347;48.780;9.158;2023-04-03T05:15:18;8.60;17.90
728;DHT22;347;48.780;9.158;2023-04-03T05:17:44;8.60;17.90
728;DHT22;347;48.780;9.158;2023-04-03T05:20:11;8.60;17.80
728;DHT22;347;48.780;9.158;2023-04-03T05:22:36;8.80;17.30
728;DHT22;347;48.780;9.158;2023-04-03T05:25:03;8.80;17.10
728;DHT22;347;48.780;9.158;2023-04-03T05:27:28;8.80;17.00
728;DHT22;347;48.780;9.158;2023-04-03T05:29:55;8.80;16.80
728;DHT22;347;48.780;9.158;2023-04-03T05:32:22;8.90;16.90
728;DHT22;347;48.780;9.158;2023-04-03T05:34:47;8.80;17.00
728;DHT22;347;48.780;9.158;2023-04-03T05:37:13;8.80;17.10
728;DHT22;347;48.780;9.158;2023-04-03T05:39:39;8.80;17.30
728;DHT22;347;48.780;9.158;2023-04-03T05:42:06;8.80;17.60
728;DHT22;347;48.780;9.158;2023-04-03T05:44:32;8.80;17.30
728;DHT22;347;48.780;9.158;2023-04-03T05:46:58;8.80;17.40
728;DHT22;347;48.780;9.158;2023-04-03T05:49:24;8.80;17.20
728;DHT22;347;48.780;9.158;2023-04-03T05:51:50;8.70;17.70
728;DHT22;347;48.780;9.158;2023-04-03T05:54:34;8.70;20.40
728;DHT22;347;48.780;9.158;2023-04-03T05:57:00;8.70;19.70
728;DHT22;347;48.780;9.158;2023-04-03T05:59:25;8.70;18.20
728;DHT22;347;48.780;9.158;2023-04-03T06:01:51;8.70;18.00
728;DHT22;347;48.780;9.158;2023-04-03T06:04:17;8.50;18.10
728;DHT22;347;48.780;9.158;2023-04-03T06:06:48;8.60;17.90
728;DHT22;347;48.780;9.158;2023-04-03T06:09:15;8.50;17.70
728;DHT22;347;48.780;9.158;2023-04-03T06:11:42;8.50;18.10
728;DHT22;347;48.780;9.158;2023-04-03T06:14:08;8.40;17.70
728;DHT22;347;48.780;9.158;2023-04-03T06:16:34;8.40;17.50
728;DHT22;347;48.780;9.158;2023-04-03T06:19:00;8.40;17.80
728;DHT22;347;48.780;9.158;2023-04-03T06:21:26;8.30;18.00
728;DHT22;347;48.780;9.158;2023-04-03T06:23:51;8.40;19.10
728;DHT22;347;48.780;9.158;2023-04-03T06:26:17;8.50;17.90
728;DHT22;347;48.780;9.158;2023-04-03T06:28:43;8.50;18.10
728;DHT22;347;48.780;9.158;2023-04-03T06:31:08;8.50;18.70
728;DHT22;347;48.780;9.158;2023-04-03T06:33:34;8.50;18.40
728;DHT22;347;48.780;9.158;2023-04-03T06:36:04;8.30;18.10
728;DHT22;347;48.780;9.158;2023-04-03T06:38:30;8.20;18.90
728;DHT22;347;48.780;9.158;2023-04-03T06:40:56;8.20;19.10
728;DHT22;347;48.780;9.158;2023-04-03T06:43:22;8.20;18.90
728;DHT22;347;48.780;9.158;2023-04-03T06:45:48;8.10;18.90
728;DHT22;347;48.780;9.158;2023-04-03T06:48:13;8.10;19.70
728;DHT22;347;48.780;9.158;2023-04-03T06:50:39;8.20;19.30
728;DHT22;347;48.780;9.158;2023-04-03T06:53:05;8.20;19.00
728;DHT22;347;48.780;9.158;2023-04-03T06:55:32;8.20;18.90
728;DHT22;347;48.780;9.158;2023-04-03T06:57:58;8.20;19.00
728;DHT22;347;48.780;9.158;2023-04-03T07:00:23;8.30;19.40
728;DHT22;347;48.780;9.158;2023-04-03T07:02:50;8.00;19.40
728;DHT22;347;48.780;9.158;2023-04-03T07:05:15;8.00;19.70
728;DHT22;347;48.780;9.158;2023-04-03T07:07:41;8.00;20.00
728;DHT22;347;48.780;9.158;2023-04-03T07:10:07;8.00;19.90
728;DHT22;347;48.780;9.158;2023-04-03T07:12:33;8.10;19.90
728;DHT22;347;48.780;9.158;2023-04-03T07:14:59;8.20;20.20
728;DHT22;347;48.780;9.158;2023-04-03T07:17:25;8.20;20.00
728;DHT22;347;48.780;9.158;2023-04-03T07:19:51;8.30;19.90
728;DHT22;347;48.780;9.158;2023-04-03T07:22:17;8.20;22.20
728;DHT22;347;48.780;9.158;2023-04-03T07:24:42;8.20;20.50
728;DHT22;347;48.780;9.158;2023-04-03T07:27:08;8.20;20.10
728;DHT22;347;48.780;9.158;2023-04-03T07:29:34;8.10;20.50
728;DHT22;347;48.780;9.158;2023-04-03T07:32:01;8.10;20.30
728;DHT22;347;48.780;9.158;2023-04-03T07:34:27;8.10;20.10
728;DHT22;347;48.780;9.158;2023-04-03T07:36:52;8.20;20.50
728;DHT22;347;48.780;9.158;2023-04-03T07:39:18;8.30;20.00
728;DHT22;347;48.780;9.158;2023-04-03T07:41:44;8.40;19.80
728;DHT22;347;48.780;9.158;2023-04-03T07:44:09;8.50;19.50
728;DHT22;347;48.780;9.158;2023-04-03T07:46:36;8.40;19.80
728;DHT22;347;48.780;9.158;2023-04-03T07:49:02;8.10;20.10
728;DHT22;347;48.780;9.158;2023-04-03T07:51:27;8.10;20.40
728;DHT22;347;48.780;9.158;2023-04-03T07:53:55;8.20;20.40
728;DHT22;347;48.780;9.158;2023-04-03T07:56:21;8.20;20.00
728;DHT22;347;48.780;9.158;2023-04-03T07:58:48;8.30;20.10
728;DHT22;347;48.780;9.158;2023-04-03T08:01:13;8.10;20.70
728;DHT22;347;48.780;9.158;2023-04-03T08:03:39;8.10;20.60
728;DHT22;347;48.780;9.158;2023-04-03T08:06:07;8.10;21.20
728;DHT22;347;48.780;9.158;2023-04-03T08:08:33;8.10;20.70
728;DHT22;347;48.780;9.158;2023-04-03T08:11:00;8.20;20.30
728;DHT22;347;48.780;9.158;2023-04-03T08:13:28;8.20;20.10
728;DHT22;347;48.780;9.158;2023-04-03T08:15:54;8.20;20.50
728;DHT22;347;48.780;9.158;2023-04-03T08:18:22;8.20;20.60
728;DHT22;347;48.780;9.158;2023-04-03T08:20:50;8.30;20.70
728;DHT22;347;48.780;9.158;2023-04-03T08:23:16;8.30;20.40
728;DHT22;347;48.780;9.158;2023-04-03T08:25:42;8.30;20.40
728;DHT22;347;48.780;9.158;2023-04-03T08:28:09;8.30;20.30
728;DHT22;347;48.780;9.158;2023-04-03T08:30:35;8.40;20.40
728;DHT22;347;48.780;9.158;2023-04-03T08:33:02;8.30;20.90
728;DHT22;347;48.780;9.158;2023-04-03T08:35:28;8.30;20.80
728;DHT22;347;48.780;9.158;2023-04-03T08:37:53;8.30;21.00
728;DHT22;347;48.780;9.158;2023-04-03T08:40:19;8.50;20.40
728;DHT22;347;48.780;9.158;2023-04-03T08:43:09;8.50;20.40
728;DHT22;347;48.780;9.158;2023-04-03T08:45:55;8.50;20.10
728;DHT22;347;48.780;9.158;2023-04-03T08:48:29;8.50;20.20
728;DHT22;347;48.780;9.158;2023-04-03T08:51:08;8.40;20.80
728;DHT22;347;48.780;9.158;2023-04-03T08:53:40;8.30;20.80
728;DHT22;347;48.780;9.158;2023-04-03T08:56:09;8.20;20.80
728;DHT22;347;48.780;9.158;2023-04-03T08:58:56;8.30;20.80
728;DHT22;347;48.780;9.158;2023-04-03T09:01:37;8.50;20.40
728;DHT22;347;48.780;9.158;2023-04-03T09:04:11;8.40;20.60
728;DHT22;347;48.780;9.158;2023-04-03T09:06:38;8.40;20.90
728;DHT22;347;48.780;9.158;2023-04-03T09:09:12;8.40;20.80
728;DHT22;347;48.780;9.158;2023-04-03T09:11:57;8.50;20.90
728;DHT22;347;48.780;9.158;2023-04-03T09:14:42;8.60;20.40
728;DHT22;347;48.780;9.158;2023-04-03T09:17:33;8.60;20.90
728;DHT22;347;48.780;9.158;2023-04-03T09:20:37;8.70;20.60
728;DHT22;347;48.780;9.158;2023-04-03T09:26:14;8.40;21.30
728;DHT22;347;48.780;9.158;2023-04-03T09:28:41;8.60;21.30
728;DHT22;347;48.780;9.158;2023-04-03T09:33:44;8.80;19.90
728;DHT22;347;48.780;9.158;2023-04-03T09:36:10;8.90;19.30
728;DHT22;347;48.780;9.158;2023-04-03T09:38:36;8.90;19.50
728;DHT22;347;48.780;9.158;2023-04-03T09:41:16;8.90;19.20
728;DHT22;347;48.780;9.158;2023-04-03T09:43:53;9.00;19.40
728;DHT22;347;48.780;9.158;2023-04-03T09:46:33;9.00;20.20
728;DHT22;347;48.780;9.158;2023-04-03T09:49:02;9.00;19.80
728;DHT22;347;48.780;9.158;2023-04-03T09:51:28;9.00;19.20
728;DHT22;347;48.780;9.158;2023-04-03T09:53:55;9.00;20.20
728;DHT22;347;48.780;9.158;2023-04-03T09:56:22;9.00;19.20
728;DHT22;347;48.780;9.158;2023-04-03T10:01:33;9.10;18.40
728;DHT22;347;48.780;9.158;2023-04-03T10:04:13;9.10;18.40
728;DHT22;347;48.780;9.158;2023-04-03T10:06:40;9.20;18.20
728;DHT22;347;48.780;9.158;2023-04-03T10:09:24;9.20;17.80
728;DHT22;347;48.780;9.158;2023-04-03T10:14:31;8.90;19.00
728;DHT22;347;48.780;9.158;2023-04-03T10:19:41;9.00;18.20
728;DHT22;347;48.780;9.158;2023-04-03T10:25:04;9.00;18.20
728;DHT22;347;48.780;9.158;2023-04-03T10:27:42;9.00;18.00
728;DHT22;347;48.780;9.158;2023-04-03T10:38:55;9.00;17.10
728;DHT22;347;48.780;9.158;2023-04-03T10:42:02;8.80;17.40
728;DHT22;347;48.780;9.158;2023-04-03T10:47:37;8.90;16.90
728;DHT22;347;48.780;9.158;2023-04-03T10:50:29;8.90;17.00
728;DHT22;347;48.780;9.158;2023-04-03T10:59:07;9.00;17.20
728;DHT22;347;48.780;9.158;2023-04-03T11:01:36;9.00;16.80
728;DHT22;347;48.780;9.158;2023-04-03T11:04:04;9.00;16.80
728;DHT22;347;48.780;9.158;2023-04-03T11:06:37;9.10;16.30
728;DHT22;347;48.780;9.158;2023-04-03T11:09:26;9.00;16.50
728;DHT22;347;48.780;9.158;2023-04-03T11:12:02;8.90;16.30
728;DHT22;347;48.780;9.158;2023-04-03T11:14:31;9.00;15.80
728;DHT22;347;48.780;9.158;2023-04-03T11:22:27;8.90;15.70
728;DHT22;347;48.780;9.158;2023-04-03T11:25:05;8.90;15.00
728;DHT22;347;48.780;9.158;2023-04-03T11:27:47;8.90;15.60
728;DHT22;347;48.780;9.158;2023-04-03T11:35:57;9.00;15.40
728;DHT22;347;48.780;9.158;2023-04-03T11:38:28;9.00;15.00
728;DHT22;347;48.780;9.158;2023-04-03T11:40:56;9.10;15.10
728;DHT22;347;48.780;9.158;2023-04-03T11:43:28;9.10;15.10
728;DHT22;347;48.780;9.158;2023-04-03T11:45:59;9.10;15.10
728;DHT22;347;48.780;9.158;2023-04-03T11:50:58;9.10;15.10
728;DHT22;347;48.780;9.158;2023-04-03T11:56:02;9.10;15.10
728;DHT22;347;48.780;9.158;2023-04-03T11:58:30;8.90;15.60
728;DHT22;347;48.780;9.158;2023-04-03T12:01:06;8.90;15.30
728;DHT22;347;48.780;9.158;2023-04-03T12:48:27;9.30;13.70
728;DHT22;347;48.780;9.158;2023-04-03T12:50:54;9.30;13.30
728;DHT22;347;48.780;9.158;2023-04-03T12:53:28;9.20;13.00
728;DHT22;347;48.780;9.158;2023-04-03T12:58:48;9.20;13.20
728;DHT22;347;48.780;9.158;2023-04-03T13:01:17;9.20;13.90
728;DHT22;347;48.780;9.158;2023-04-03T13:03:48;9.30;12.80
728;DHT22;347;48.780;9.158;2023-04-03T13:06:27;9.30;13.50
728;DHT22;347;48.780;9.158;2023-04-03T13:08:57;9.10;13.90
728;DHT22;347;48.780;9.158;2023-04-03T13:11:30;9.10;14.80
728;DHT22;347;48.780;9.158;2023-04-03T13:14:03;9.10;13.90
728;DHT22;347;48.780;9.158;2023-04-03T13:16:30;9.10;13.90
728;DHT22;347;48.780;9.158;2023-04-03T13:18:57;9.00;14.10
728;DHT22;347;48.780;9.158;2023-04-03T13:21:29;9.00;13.40
728;DHT22;347;48.780;9.158;2023-04-03T13:24:01;9.20;13.30
728;DHT22;347;48.780;9.158;2023-04-03T13:26:30;9.30;12.40
728;DHT22;347;48.780;9.158;2023-04-03T13:29:06;9.30;13.10
728;DHT22;347;48.780;9.158;2023-04-03T13:31:35;9.50;12.60
728;DHT22;347;48.780;9.158;2023-04-03T13:34:11;9.60;12.40
728;DHT22;347;48.780;9.158;2023-04-03T13:36:44;9.70;12.40
728;DHT22;347;48.780;9.158;2023-04-03T13:41:41;9.70;11.30
728;DHT22;347;48.780;9.158;2023-04-03T13:46:58;9.70;13.00
728;DHT22;347;48.780;9.158;2023-04-03T13:52:00;9.60;13.30
728;DHT22;347;48.780;9.158;2023-04-03T13:54:29;9.80;12.40
728;DHT22;347;48.780;9.158;2023-04-03T13:56:57;9.90;12.50
728;DHT22;347;48.780;9.158;2023-04-03T13:59:34;10.00;13.20
728;DHT22;347;48.780;9.158;2023-04-03T14:04:31;10.10;10.50
728;DHT22;347;48.780;9.158;2023-04-03T14:06:57;10.10;15.00
728;DHT22;347;48.780;9.158;2023-04-03T14:09:25;10.10;10.40
728;DHT22;347;48.780;9.158;2023-04-03T14:11:54;10.00;10.20
728;DHT22;347;48.780;9.158;2023-04-03T14:14:30;9.90;11.20
728;DHT22;347;48.780;9.158;2023-04-03T14:16:58;10.00;11.40
728;DHT22;347;48.780;9.158;2023-04-03T14:19:34;10.00;9.90
728;DHT22;347;48.780;9.158;2023-04-03T14:22:12;9.90;10.80
728;DHT22;347;48.780;9.158;2023-04-03T14:24:38;9.90;10.80
728;DHT22;347;48.780;9.158;2023-04-03T14:27:53;9.80;11.00
728;DHT22;347;48.780;9.158;2023-04-03T14:30:01;9.80;11.30
728;DHT22;347;48.780;9.158;2023-04-03T14:32:29;9.80;11.30
728;DHT22;347;48.780;9.158;2023-04-03T14:34:55;9.70;11.20
728;DHT22;347;48.780;9.158;2023-04-03T14:37:26;9.60;11.60
728;DHT22;347;48.780;9.158;2023-04-03T14:39:54;9.70;11.20
728;DHT22;347;48.780;9.158;2023-04-03T14:42:23;9.70;10.80
728;DHT22;347;48.780;9.158;2023-04-03T14:44:49;9.80;10.60
728;DHT22;347;48.780;9.158;2023-04-03T14:47:19;9.80;9.90
728;DHT22;347;48.780;9.158;2023-04-03T14:49:45;9.90;10.40
728;DHT22;347;48.780;9.158;2023-04-03T14:52:25;9.80;9.90
728;DHT22;347;48.780;9.158;2023-04-03T14:54:51;9.90;10.00
728;DHT22;347;48.780;9.158;2023-04-03T14:57:18;9.90;10.10
728;DHT22;347;48.780;9.158;2023-04-03T14:59:45;9.90;9.80
728;DHT22;347;48.780;9.158;2023-04-03T15:02:31;9.80;10.60
728;DHT22;347;48.780;9.158;2023-04-03T15:04:58;9.60;10.10
728;DHT22;347;48.780;9.158;2023-04-03T15:07:26;9.70;10.00
728;DHT22;347;48.780;9.158;2023-04-03T15:09:52;9.80;10.20
728;DHT22;347;48.780;9.158;2023-04-03T15:12:18;9.80;10.10
728;DHT22;347;48.780;9.158;2023-04-03T15:14:43;9.80;9.60
728;DHT22;347;48.780;9.158;2023-04-03T15:17:17;9.70;9.80
728;DHT22;347;48.780;9.158;2023-04-03T15:19:44;9.60;10.10
728;DHT22;347;48.780;9.158;2023-04-03T15:22:17;9.70;9.60
728;DHT22;347;48.780;9.158;2023-04-03T15:24:44;9.70;10.00
728;DHT22;347;48.780;9.158;2023-04-03T15:27:11;9.50;10.00
728;DHT22;347;48.780;9.158;2023-04-03T15:29:38;9.50;9.90
728;DHT22;347;48.780;9.158;2023-04-03T15:32:04;9.70;9.20
728;DHT22;347;48.780;9.158;2023-04-03T15:34:30;9.60;9.70
728;DHT22;347;48.780;9.158;2023-04-03T15:36:56;9.70;9.40
728;DHT22;347;48.780;9.158;2023-04-03T15:39:22;9.80;9.40
728;DHT22;347;48.780;9.158;2023-04-03T15:41:48;9.70;8.90
728;DHT22;347;48.780;9.158;2023-04-03T15:44:14;9.60;10.00
728;DHT22;347;48.780;9.158;2023-04-03T15:46:43;9.60;9.30
728;DHT22;347;48.780;9.158;2023-04-03T15:49:09;9.60;9.60
728;DHT22;347;48.780;9.158;2023-04-03T15:51:35;9.60;9.10
728;DHT22;347;48.780;9.158;2023-04-03T15:54:01;9.70;8.70
728;DHT22;347;48.780;9.158;2023-04-03T15:56:27;9.70;8.80
728;DHT22;347;48.780;9.158;2023-04-03T15:58:52;9.70;9.00
728;DHT22;347;48.780;9.158;2023-04-03T16:01:18;9.60;8.70
728;DHT22;347;48.780;9.158;2023-04-03T16:03:44;9.70;9.40
728;DHT22;347;48.780;9.158;2023-04-03T16:06:19;9.80;8.40
728;DHT22;347;48.780;9.158;2023-04-03T16:08:46;9.70;8.80
728;DHT22;347;48.780;9.158;2023-04-03T16:11:12;9.70;8.60
728;DHT22;347;48.780;9.158;2023-04-03T16:13:38;9.70;8.70
728;DHT22;347;48.780;9.158;2023-04-03T16:16:04;9.70;9.10
728;DHT22;347;48.780;9.158;2023-04-03T16:18:30;9.70;8.40
728;DHT22;347;48.780;9.158;2023-04-03T16:20:56;9.80;8.40
728;DHT22;347;48.780;9.158;2023-04-03T16:23:22;9.80;8.40
728;DHT22;347;48.780;9.158;2023-04-03T16:25:48;9.80;7.90
728;DHT22;347;48.780;9.158;2023-04-03T16:28:16;9.90;7.90
728;DHT22;347;48.780;9.158;2023-04-03T16:30:43;9.90;7.50
728;DHT22;347;48.780;9.158;2023-04-03T16:33:11;9.90;7.30
728;DHT22;347;48.780;9.158;2023-04-03T16:35:36;9.90;7.60
728;DHT22;347;48.780;9.158;2023-04-03T16:38:02;9.90;7.50
728;DHT22;347;48.780;9.158;2023-04-03T16:40:28;9.90;7.00
728;DHT22;347;48.780;9.158;2023-04-03T16:42:53;9.90;7.00
728;DHT22;347;48.780;9.158;2023-04-03T16:45:19;9.90;7.00
728;DHT22;347;48.780;9.158;2023-04-03T16:47:45;9.80;6.90
728;DHT22;347;48.780;9.158;2023-04-03T16:50:11;9.90;7.00
728;DHT22;347;48.780;9.158;2023-04-03T16:52:36;9.90;7.00
728;DHT22;347;48.780;9.158;2023-04-03T16:55:02;9.80;7.60
728;DHT22;347;48.780;9.158;2023-04-03T16:57:28;9.70;8.20
728;DHT22;347;48.780;9.158;2023-04-03T16:59:54;9.70;8.70
728;DHT22;347;48.780;9.158;2023-04-03T17:02:21;9.80;8.40
728;DHT22;347;48.780;9.158;2023-04-03T17:04:47;9.80;8.20
728;DHT22;347;48.780;9.158;2023-04-03T17:07:12;9.80;8.40
728;DHT22;347;48.780;9.158;2023-04-03T17:09:38;9.70;8.10
728;DHT22;347;48.780;9.158;2023-04-03T17:12:04;9.70;8.20
728;DHT22;347;48.780;9.158;2023-04-03T17:14:29;9.60;8.30
728;DHT22;347;48.780;9.158;2023-04-03T17:16:55;9.60;8.20
728;DHT22;347;48.780;9.158;2023-04-03T17:19:21;9.60;8.10
728;DHT22;347;48.780;9.158;2023-04-03T17:21:48;9.60;8.30
728;DHT22;347;48.780;9.158;2023-04-03T17:24:14;9.50;8.50
728;DHT22;347;48.780;9.158;2023-04-03T17:26:40;9.40;8.50
728;DHT22;347;48.780;9.158;2023-04-03T17:29:06;9.50;15.30
728;DHT22;347;48.780;9.158;2023-04-03T17:31:32;9.60;10.40
728;DHT22;347;48.780;9.158;2023-04-03T17:33:57;9.70;13.20
728;DHT22;347;48.780;9.158;2023-04-03T17:36:27;9.70;10.80
728;DHT22;347;48.780;9.158;2023-04-03T17:38:53;9.80;12.80
728;DHT22;347;48.780;9.158;2023-04-03T17:41:19;9.80;13.70
728;DHT22;347;48.780;9.158;2023-04-03T17:43:45;9.90;9.80
728;DHT22;347;48.780;9.158;2023-04-03T17:46:11;9.90;12.80
728;DHT22;347;48.780;9.158;2023-04-03T17:48:38;9.90;10.50
728;DHT22;347;48.780;9.158;2023-04-03T17:51:19;9.90;11.80
728;DHT22;347;48.780;9.158;2023-04-03T17:53:46;10.00;11.10
728;DHT22;347;48.780;9.158;2023-04-03T17:56:23;10.00;9.60
728;DHT22;347;48.780;9.158;2023-04-03T17:58:52;10.00;9.10
728;DHT22;347;48.780;9.158;2023-04-03T18:01:24;9.80;9.30
728;DHT22;347;48.780;9.158;2023-04-03T18:03:52;9.80;9.60
728;DHT22;347;48.780;9.158;2023-04-03T18:06:20;9.60;8.60
728;DHT22;347;48.780;9.158;2023-04-03T18:08:50;9.50;9.60
728;DHT22;347;48.780;9.158;2023-04-03T18:11:17;9.60;9.30
728;DHT22;347;48.780;9.158;2023-04-03T18:13:44;9.70;11.30
728;DHT22;347;48.780;9.158;2023-04-03T18:16:12;9.70;10.90
728;DHT22;347;48.780;9.158;2023-04-03T18:18:38;9.70;9.20
728;DHT22;347;48.780;9.158;2023-04-03T18:21:04;9.60;9.30
728;DHT22;347;48.780;9.158;2023-04-03T18:23:32;9.60;9.90
728;DHT22;347;48.780;9.158;2023-04-03T18:25:59;9.60;9.40
728;DHT22;347;48.780;9.158;2023-04-03T18:28:27;9.60;9.40
728;DHT22;347;48.780;9.158;2023-04-03T18:30:53;9.60;9.40
728;DHT22;347;48.780;9.158;2023-04-03T18:33:19;9.60;9.20
728;DHT22;347;48.780;9.158;2023-04-03T18:35:45;9.60;9.00
728;DHT22;347;48.780;9.158;2023-04-03T18:38:10;9.50;9.30
728;DHT22;347;48.780;9.158;2023-04-03T18:40:36;9.30;9.80
728;DHT22;347;48.780;9.158;2023-04-03T18:43:02;9.40;9.60
728;DHT22;347;48.780;9.158;2023-04-03T18:45:28;9.40;9.50
728;DHT22;347;48.780;9.158;2023-04-03T18:47:54;9.40;9.30
728;DHT22;347;48.780;9.158;2023-04-03T18:50:21;9.40;9.50
728;DHT22;347;48.780;9.158;2023-04-03T18:52:46;9.40;9.20
728;DHT22;347;48.780;9.158;2023-04-03T18:55:18;9.30;9.00
728;DHT22;347;48.780;9.158;2023-04-03T18:57:45;9.30;9.30
728;DHT22;347;48.780;9.158;2023-04-03T19:00:13;9.30;9.20